Time;durP1;ratioP1;P1;durP2;ratioP2;P2;SDS_P1;SDS_P2;PMS_P1;PMS_P2;Temp;Humidity;BMP_temperature;BMP_pressure;BME280_temperature;BME280_humidity;BME280_pressure;Samples;Min_cycle;Max_cycle;Signal;HPM_P1;HPM_P2
2022/02/23 01:14:43;;;;;;;13.35;9.23;;;154.00;2252.80;;;;;;4895055;29;20103;-83
2022/02/23 03:53:49;;;;;;;13.35;8.40;;;128.30;2252.80;;;;;;6007402;23;20035;31
2022/02/23 04:49:16;;;;;;;;;;;;;;;;;;;;;
2022/02/23 07:29:02;;;;;;;20.73;9.70;;;153.80;2252.80;;;;;;5247928;23;20030;31
2022/02/23 08:22:00;;;;;;;16.55;7.55;;;180.10;2252.80;;;;;;4934716;23;20614;-79
2022/02/23 08:24:33;;;;;;;11.68;5.22;;;180.10;2252.80;;;;;;4882713;29;20037;-81
2022/02/23 08:33:03;;;;;;;21.50;7.40;;;204.90;2252.80;;;;;;4899361;29;20032;-79
2022/02/23 08:35:32;;;;;;;15.68;7.85;;;205.00;2252.80;;;;;;4882326;29;20024;-82
2022/02/23 08:37:59;;;;;;;14.70;5.47;;;205.00;2252.80;;;;;;4882244;29;20123;-78
2022/02/23 08:40:31;;;;;;;13.65;6.13;;;205.10;2252.80;;;;;;4882248;29;20075;-78
2022/02/23 08:42:57;;;;;;;19.42;11.38;;;205.10;2252.80;;;;;;4882053;29;20043;-76
2022/02/23 08:45:23;;;;;;;24.67;13.25;;;205.10;2252.80;;;;;;4898962;29;20493;-77
2022/02/23 08:47:48;;;;;;;25.52;14.13;;;205.10;2252.80;;;;;;4881905;29;20028;-80
2022/02/23 08:50:14;;;;;;;18.48;10.10;;;205.20;2252.80;;;;;;4899080;29;20540;-79
2022/02/23 08:52:40;;;;;;;23.17;8.60;;;205.30;2252.80;;;;;;4882332;29;20055;-80
2022/02/23 08:55:08;;;;;;;16.92;9.32;;;205.30;2252.80;;;;;;4882017;29;20040;-77
2022/02/23 08:57:34;;;;;;;23.40;14.80;;;205.30;2252.80;;;;;;4899084;29;20052;-76
2022/02/23 09:00:00;;;;;;;16.05;9.57;;;205.40;2252.80;;;;;;4882238;29;20059;-78
2022/02/23 09:02:26;;;;;;;18.77;10.88;;;205.40;2252.80;;;;;;4881872;29;20074;-79
2022/02/23 09:04:51;;;;;;;15.52;9.60;;;205.40;2252.80;;;;;;4882038;29;20033;-78
2022/02/23 09:07:17;;;;;;;18.65;9.73;;;205.40;2252.80;;;;;;4898622;29;20084;-77
2022/02/23 09:09:43;;;;;;;11.90;6.20;;;205.50;2252.80;;;;;;4917451;29;20380;-79
2022/02/23 09:12:09;;;;;;;17.83;7.82;;;205.40;2252.80;;;;;;4917676;29;20047;-81
2022/02/23 09:14:35;;;;;;;20.55;9.93;;;205.50;2252.80;;;;;;4900633;29;20032;-80
2022/02/23 09:17:01;;;;;;;15.35;9.30;;;205.70;2252.80;;;;;;4900302;29;20043;-78
2022/02/23 09:19:27;;;;;;;11.35;5.40;;;205.70;2252.80;;;;;;4900211;29;20070;-78
2022/02/23 09:21:52;;;;;;;7.93;4.07;;;205.70;2252.80;;;;;;4900456;29;20059;-78
2022/02/23 09:24:18;;;;;;;9.40;6.68;;;205.60;2227.20;;;;;;4904357;29;20393;-81
2022/02/23 09:26:44;;;;;;;10.35;4.72;;;205.60;2150.40;;;;;;4881497;29;20040;-79
2022/02/23 09:29:10;;;;;;;17.30;9.82;;;205.70;2150.40;;;;;;4881210;29;20036;-81
2022/02/23 09:31:36;;;;;;;15.23;7.05;;;230.50;2124.80;;;;;;4898322;29;20116;-80
2022/02/23 09:34:02;;;;;;;15.50;6.07;;;230.70;2150.40;;;;;;4881761;29;20029;-79
2022/02/23 09:36:28;;;;;;;11.10;4.70;;;230.80;2150.40;;;;;;4884870;29;20043;-80
2022/02/23 09:38:54;;;;;;;11.18;4.85;;;230.90;2176.00;;;;;;4905962;29;20017;-77
2022/02/23 09:41:21;;;;;;;9.40;3.60;;;230.90;2073.60;;;;;;4902862;29;20063;-77
2022/02/23 09:43:50;;;;;;;8.93;4.35;;;230.80;2124.80;;;;;;4899433;29;20058;-76
2022/02/23 09:46:21;;;;;;;11.60;6.60;;;230.90;2022.40;;;;;;4882690;29;20028;-76
2022/02/23 09:48:48;;;;;;;11.38;7.05;;;231.10;2022.40;;;;;;4899310;29;20021;-76
2022/02/23 09:51:14;;;;;;;27.38;11.95;;;231.10;2022.40;;;;;;4881040;29;20072;-74
2022/02/23 09:53:45;;;;;;;15.90;8.50;;;231.20;1971.20;;;;;;4881382;29;20115;-76
2022/02/23 09:56:12;;;;;;;9.93;5.07;;;231.30;1971.20;;;;;;4898056;29;20036;-76
2022/02/23 09:58:39;;;;;;;15.43;8.95;;;231.30;1945.60;;;;;;4880927;29;20117;-77
2022/02/23 10:01:07;;;;;;;6.63;3.88;;;256.00;1945.60;;;;;;4881240;29;20025;-77
2022/02/23 10:03:38;;;;;;;6.47;3.25;;;256.00;1920.00;;;;;;4897943;29;20025;-76
2022/02/23 10:06:04;;;;;;;28.98;17.65;;;231.30;1868.80;;;;;;4880933;29;20039;-76
2022/02/23 10:08:33;;;;;;;27.52;15.82;;;256.00;1894.40;;;;;;4881229;29;20025;-77
2022/02/23 10:11:01;;;;;;;13.90;6.65;;;256.30;1894.40;;;;;;4897510;29;20029;-76
2022/02/23 10:13:27;;;;;;;27.23;14.55;;;256.50;1868.80;;;;;;4897903;29;20473;-77
2022/02/23 10:15:53;;;;;;;31.13;19.88;;;256.50;1894.40;;;;;;4898276;29;20080;-77
2022/02/23 10:18:19;;;;;;;50.33;30.20;;;256.30;1843.20;;;;;;4897747;29;20055;-78
2022/02/23 10:20:47;;;;;;;32.90;18.92;;;256.20;1817.60;;;;;;4880946;29;20485;-78
2022/02/23 10:23:23;;;;;;;55.30;37.28;;;256.10;1817.60;;;;;;4881026;29;20362;-76
2022/02/23 10:25:54;;;;;;;26.77;14.82;;;231.30;1792.00;;;;;;4897862;29;20091;-78
2022/02/23 10:28:25;;;;;;;32.60;18.70;;;231.20;1766.40;;;;;;4881118;29;20036;-77
2022/02/23 10:30:52;;;;;;;22.13;12.25;;;231.30;1740.80;;;;;;4881032;29;20035;-77
2022/02/23 10:33:25;;;;;;;28.48;15.57;;;256.00;1766.40;;;;;;4880681;29;20028;-77
2022/02/23 10:35:58;;;;;;;;;;;256.30;1740.80;;;;;;4881425;29;20456;-76
2022/02/23 10:38:25;;;;;;;;;;;256.30;1740.80;;;;;;4881353;29;19931;-75
2022/02/23 10:40:54;;;;;;;17.17;10.30;;;256.40;1740.80;;;;;;4880696;29;20474;-77
2022/02/23 10:43:35;;;;;;;26.35;11.50;;;256.40;1766.40;;;;;;4880887;29;20032;-77
2022/02/23 10:46:10;;;;;;;16.00;7.72;;;256.60;1817.60;;;;;;4900462;29;20079;-75
2022/02/23 10:48:41;;;;;;;16.95;8.60;;;256.90;1740.80;;;;;;4884539;29;20125;-78
2022/02/23 10:51:32;;;;;;;19.23;8.38;;;281.60;1766.40;;;;;;4884500;29;20025;-78
2022/02/23 10:54:09;;;;;;;17.35;10.02;;;281.60;1766.40;;;;;;4884295;29;20033;-76
2022/02/23 10:56:37;;;;;;;18.50;11.35;;;281.70;1715.20;;;;;;4884261;29;20059;-77
2022/02/23 10:59:11;;;;;;;18.08;8.55;;;281.80;1715.20;;;;;;4884242;29;20092;-76
2022/02/23 11:01:38;;;;;;;12.30;7.18;;;281.90;1689.60;;;;;;4883863;29;20049;-78
2022/02/23 11:04:05;;;;;;;14.38;6.35;;;282.00;1715.20;;;;;;4900996;29;20024;-77
2022/02/23 11:06:32;;;;;;;17.85;11.80;;;282.00;1689.60;;;;;;4884068;29;20039;-76
2022/02/23 11:08:58;;;;;;;17.70;10.40;;;281.90;1715.20;;;;;;4883685;29;20484;-76
2022/02/23 11:11:26;;;;;;;19.80;11.73;;;281.90;1715.20;;;;;;4900444;29;20503;-77
2022/02/23 11:13:53;;;;;;;25.05;14.60;;;282.20;1689.60;;;;;;4883817;29;20492;-76
2022/02/23 11:16:20;;;;;;;20.95;11.38;;;282.20;1689.60;;;;;;4883754;29;20056;-76
2022/02/23 11:18:47;;;;;;;21.95;12.35;;;282.20;1689.60;;;;;;4883780;29;20037;-76
2022/02/23 11:21:16;;;;;;;20.27;8.75;;;282.20;1664.00;;;;;;4883194;29;20107;-77
2022/02/23 11:23:45;;;;;;;25.98;13.85;;;282.30;1689.60;;;;;;4883788;29;20028;-77
2022/02/23 11:26:17;;;;;;;26.55;18.27;;;282.50;1689.60;;;;;;4900550;29;20020;-76
2022/02/23 11:29:20;;;;;;;18.07;9.70;;;282.50;1664.00;;;;;;4900509;29;20032;-76
2022/02/23 11:31:51;;;;;;;16.85;10.13;;;282.50;1689.60;;;;;;4883249;29;20029;-77
2022/02/23 11:34:22;;;;;;;14.05;7.95;;;307.40;1689.60;;;;;;4900188;29;20069;-78
2022/02/23 11:36:52;;;;;;;48.30;28.85;;;307.40;1664.00;;;;;;4900075;29;20033;-77
2022/02/23 11:39:21;;;;;;;14.85;8.30;;;307.60;1689.60;;;;;;4883188;29;20033;-77
2022/02/23 11:41:53;;;;;;;20.80;10.90;;;307.80;1689.60;;;;;;4883478;29;20052;-77
2022/02/23 11:44:29;;;;;;;13.15;8.18;;;308.00;1689.60;;;;;;4883586;29;20079;-78
2022/02/23 11:46:56;;;;;;;16.85;10.50;;;332.90;1689.60;;;;;;4883327;29;20036;-76
2022/02/23 11:49:29;;;;;;;17.92;8.45;;;333.10;1664.00;;;;;;4899410;29;20039;-75
2022/02/23 11:52:05;;;;;;;;;;;333.50;1664.00;;;;;;4883711;29;20080;-76
2022/02/23 11:55:02;;;;;;;13.93;8.20;;;333.60;1587.20;;;;;;4883195;29;20002;-76
2022/02/23 11:57:43;;;;;;;7.20;3.50;;;358.40;1587.20;;;;;;4886928;29;20049;-76
2022/02/23 12:00:23;;;;;;;11.15;4.82;;;358.60;1612.80;;;;;;4883105;29;20067;-76
2022/02/23 12:03:29;;;;;;;15.15;5.80;;;358.80;1561.60;;;;;;4883091;29;20032;-78
2022/02/23 12:06:05;;;;;;;17.52;11.20;;;358.80;1587.20;;;;;;4883111;29;20028;-75
2022/02/23 12:08:33;;;;;;;12.40;5.82;;;358.90;1587.20;;;;;;4882858;29;20033;-78
2022/02/23 12:11:22;;;;;;;10.98;5.20;;;359.00;1587.20;;;;;;4882661;29;20115;-74
2022/02/23 12:13:51;;;;;;;20.60;11.75;;;359.10;1587.20;;;;;;4882642;29;20037;-77
2022/02/23 12:16:50;;;;;;;17.52;9.07;;;384.00;1587.20;;;;;;4882693;29;20037;-75
2022/02/23 12:19:17;;;;;;;16.88;10.25;;;384.40;1612.80;;;;;;4895675;29;20047;-76
2022/02/23 12:21:52;;;;;;;16.52;10.25;;;384.50;1587.20;;;;;;4899336;29;20524;-77
2022/02/23 12:24:22;;;;;;;18.00;11.55;;;384.70;1561.60;;;;;;4899242;29;20020;-77
2022/02/23 12:26:56;;;;;;;17.15;8.60;;;409.60;1587.20;;;;;;4899348;29;20052;-76
2022/02/23 12:29:27;;;;;;;11.68;6.75;;;409.80;1587.20;;;;;;4899337;29;20025;-77
2022/02/23 12:31:52;;;;;;;17.77;8.88;;;409.70;1561.60;;;;;;4882232;29;20043;-78
2022/02/23 12:34:22;;;;;;;16.92;8.90;;;409.90;1587.20;;;;;;4882384;29;20119;-75
2022/02/23 12:36:51;;;;;;;22.60;11.05;;;410.30;1587.20;;;;;;4882388;29;20096;-76
2022/02/23 12:39:26;;;;;;;25.85;15.15;;;409.80;1587.20;;;;;;4882088;29;20473;-78
2022/02/23 12:42:03;;;;;;;20.88;10.95;;;409.70;1638.40;;;;;;4882452;29;20032;-75
2022/02/23 12:44:32;;;;;;;14.55;6.63;;;409.70;1612.80;;;;;;4882356;29;20092;-77
2022/02/23 12:47:00;;;;;;;16.67;9.60;;;409.60;1587.20;;;;;;4898844;29;20373;-77
2022/02/23 12:49:27;;;;;;;17.70;8.32;;;384.30;1612.80;;;;;;4898662;29;20035;-77
2022/02/23 12:51:54;;;;;;;20.48;12.57;;;359.00;1638.40;;;;;;4881890;29;20057;-76
2022/02/23 12:54:23;;;;;;;31.05;15.05;;;384.10;1638.40;;;;;;4882398;29;20036;-77
2022/02/23 12:56:54;;;;;;;26.95;15.10;;;384.00;1638.40;;;;;;4882068;29;20075;-77
2022/02/23 12:59:29;;;;;;;50.95;28.95;;;384.50;1612.80;;;;;;4884510;29;20479;-79
2022/02/23 13:02:01;;;;;;;16.80;10.40;;;409.70;1612.80;;;;;;4900891;29;20499;-77
2022/02/23 13:04:33;;;;;;;16.38;9.85;;;384.80;1612.80;;;;;;4891885;29;20056;-76
2022/02/23 13:07:03;;;;;;;22.70;12.63;;;409.60;1638.40;;;;;;4881041;29;20039;-76
2022/02/23 13:09:35;;;;;;;37.70;22.63;;;384.40;1664.00;;;;;;4881680;29;20032;-76
2022/02/23 13:12:01;;;;;;;20.83;11.60;;;384.50;1612.80;;;;;;4881908;29;20056;-76
2022/02/23 13:32:43;;;;;;;24.98;13.43;;;358.40;1766.40;;;;;;5698751;23;20049;-82
2022/02/23 13:38:44;;;;;;;28.23;15.05;;;333.30;1817.60;;;;;;4879761;29;20047;-78
2022/02/23 13:41:17;;;;;;;23.67;13.65;;;333.10;1843.20;;;;;;4862451;29;20081;-81
2022/02/23 13:43:53;;;;;;;;;;;333.10;1843.20;;;;;;4863463;29;20025;-82
2022/02/23 13:46:57;;;;;;;19.45;11.35;;;332.90;1817.60;;;;;;4863152;29;20320;-81
2022/02/23 13:53:28;;;;;;;27.27;16.70;;;308.10;1843.20;;;;;;4878049;29;20025;-83
2022/02/23 14:18:57;;;;;;;18.13;11.23;;;307.60;1792.00;;;;;;4837336;29;20133;-80
2022/02/23 14:37:45;;;;;;;21.35;11.02;;;307.40;1817.60;;;;;;5662044;23;20790;-80
2022/02/23 14:40:18;;;;;;;29.15;17.00;;;307.40;1817.60;;;;;;4880517;29;20108;-82
2022/02/23 14:43:21;;;;;;;32.15;18.92;;;307.30;1792.00;;;;;;4863932;29;20040;-86
2022/02/23 14:47:35;;;;;;;;;;;;;;;;;;;;;
2022/02/23 14:50:37;;;;;;;22.23;13.07;;;307.40;1792.00;;;;;;4749953;30;20074;-87
2022/02/23 14:53:43;;;;;;;;;;;;;;;;;;;;;
2022/02/23 14:57:18;;;;;;;;;;;;;;;;;;;;;
2022/02/23 15:00:29;;;;;;;11.77;6.80;;;282.50;1766.40;;;;;;4795250;29;20035;-85
2022/02/23 15:03:46;;;;;;;17.45;10.98;;;282.20;1766.40;;;;;;4863972;29;20022;-85
2022/02/23 15:06:15;;;;;;;21.38;13.13;;;282.20;1766.40;;;;;;4853798;29;20030;-87
2022/02/23 15:08:45;;;;;;;32.90;17.02;;;282.20;1817.60;;;;;;4862000;29;20033;-85
2022/02/23 15:15:54;;;;;;;;;;;;;;;;;;;;;
2022/02/23 15:19:32;;;;;;;;;;;;;;;;;;;;;
2022/02/23 15:22:32;;;;;;;37.70;21.63;;;281.90;1843.20;;;;;;4716979;30;20066;-84
2022/02/23 15:25:39;;;;;;;29.20;16.27;;;281.90;1843.20;;;;;;4717440;30;20029;-84
2022/02/23 15:35:39;;;;;;;25.83;15.48;;;281.90;1843.20;;;;;;4599564;31;20127;-84
2022/02/23 15:41:45;;;;;;;20.35;13.27;;;281.80;1843.20;;;;;;4631328;31;20046;-84
2022/02/23 16:16:22;;;;;;;32.10;20.05;;;256.80;1894.40;;;;;;4598115;31;19959;-85
2022/02/23 16:18:48;;;;;;;45.97;28.50;;;256.70;1920.00;;;;;;4661137;30;20050;-81
2022/02/23 16:25:22;;;;;;;59.28;36.10;;;256.70;1894.40;;;;;;4707719;30;20517;-83
2022/02/23 16:28:33;;;;;;;60.63;37.85;;;256.60;1920.00;;;;;;4701423;30;20503;-84
2022/02/23 16:31:34;;;;;;;;;;;;;;;;;;;;;
2022/02/23 17:21:01;;;;;;;49.05;29.48;;;231.10;2201.60;;;;;;5025870;23;20135;-79
2022/02/23 17:48:46;;;;;;;92.43;57.35;;;230.70;2252.80;;;;;;4981425;23;20481;-78
2022/02/23 18:05:11;;;;;;;30.90;20.02;;;230.80;2252.80;;;;;;5221942;23;20052;-77
2022/02/23 18:08:08;;;;;;;31.95;20.60;;;256.40;2252.80;;;;;;4885236;29;20021;-78
2022/02/23 18:10:41;;;;;;;25.58;14.77;;;230.90;2252.80;;;;;;4874261;29;20060;-78
2022/02/23 18:13:45;;;;;;;25.02;13.55;;;230.80;2252.80;;;;;;4885182;29;20462;-81
2022/02/23 18:20:04;;;;;;;21.27;13.98;;;230.90;2252.80;;;;;;4901479;29;20040;-78
2022/02/23 18:23:27;;;;;;;26.38;15.65;;;230.90;2252.80;;;;;;4884928;29;20032;-79
2022/02/23 18:26:09;;;;;;;89.88;53.20;;;230.90;2252.80;;;;;;4874425;29;20040;-81
2022/02/23 18:28:43;;;;;;;38.33;21.67;;;230.90;2252.80;;;;;;4884960;29;20469;-79
2022/02/23 18:31:20;;;;;;;18.73;10.48;;;230.90;2252.80;;;;;;4884887;29;20029;-77
2022/02/23 18:37:30;;;;;;;32.75;17.55;;;230.90;2252.80;;;;;;4901103;29;20056;-80
2022/02/23 18:39:56;;;;;;;34.92;19.88;;;230.90;2252.80;;;;;;4884206;29;20021;-79
2022/02/23 18:42:22;;;;;;;28.23;15.73;;;230.70;2252.80;;;;;;4884458;29;20017;-80
2022/02/23 18:44:50;;;;;;;33.55;17.70;;;230.90;2252.80;;;;;;4884608;29;20417;-83
2022/02/23 18:47:17;;;;;;;22.75;13.70;;;230.60;2252.80;;;;;;4884401;29;20035;-77
2022/02/23 18:49:51;;;;;;;14.75;9.38;;;230.70;2252.80;;;;;;4884519;29;20541;-79
2022/02/23 18:55:41;;;;;;;;;;;230.40;2252.80;;;;;;4861973;29;20029;-78
2022/02/23 18:58:37;;;;;;;22.52;11.90;;;230.40;2252.80;;;;;;4861391;29;19915;-79
2022/02/23 19:01:25;;;;;;;17.20;9.50;;;205.70;2252.80;;;;;;4845178;29;20566;-80
2022/02/23 19:04:32;;;;;;;21.35;12.35;;;205.70;2252.80;;;;;;4845321;29;20029;-78
2022/02/23 19:07:28;;;;;;;15.20;10.07;;;205.60;2252.80;;;;;;4844779;29;20048;-77
2022/02/23 19:21:27;;;;;;;17.45;9.93;;;205.50;2252.80;;;;;;4699805;30;20108;-77
2022/02/23 19:24:18;;;;;;;22.55;13.80;;;205.50;2252.80;;;;;;4699576;30;20041;-80
2022/02/23 19:32:41;;;;;;;45.83;23.57;;;205.50;2252.80;;;;;;5289335;23;20055;-78
2022/02/23 19:39:13;;;;;;;73.18;28.60;;;205.50;2252.80;;;;;;4858257;29;20089;-76
2022/02/23 19:45:30;;;;;;;23.45;11.13;;;205.50;2252.80;;;;;;4874923;29;20389;-77
2022/02/23 19:48:17;;;;;;;50.25;27.33;;;205.50;2252.80;;;;;;4878725;29;20024;-83
2022/02/23 19:50:43;;;;;;;63.25;38.80;;;205.40;2252.80;;;;;;4883233;29;20051;-82
2022/02/23 19:53:29;;;;;;;51.45;27.48;;;205.40;2252.80;;;;;;4883374;29;20021;-79
2022/02/23 19:55:59;;;;;;;44.03;21.80;;;205.30;2252.80;;;;;;4882997;29;20027;-81
2022/02/23 19:58:26;;;;;;;43.40;23.77;;;205.40;2252.80;;;;;;4883136;29;20068;-78
2022/02/23 20:01:16;;;;;;;38.28;17.33;;;205.40;2252.80;;;;;;4883287;29;20029;-79
2022/02/23 20:03:51;;;;;;;27.40;14.27;;;205.60;2252.80;;;;;;4882832;29;20437;-79
2022/02/23 20:06:17;;;;;;;30.95;17.40;;;205.60;2252.80;;;;;;4883254;29;20453;-82
2022/02/23 20:09:38;;;;;;;30.55;15.38;;;205.60;2252.80;;;;;;4882809;29;20044;-83
2022/02/23 20:12:14;;;;;;;18.08;9.90;;;205.70;2252.80;;;;;;4881797;29;20072;-81
2022/02/23 20:18:13;;;;;;;18.70;11.13;;;230.60;2252.80;;;;;;4858936;29;20478;-82
2022/02/23 20:27:24;;;;;;;17.33;10.15;;;230.60;2252.80;;;;;;4899268;29;20035;-80
2022/02/23 20:30:07;;;;;;;42.80;19.80;;;230.60;2252.80;;;;;;4882400;29;20496;-80
2022/02/23 20:32:38;;;;;;;;;;;230.60;2252.80;;;;;;4881299;29;20087;-79
2022/02/23 20:35:27;;;;;;;30.05;17.00;;;230.60;2252.80;;;;;;4898012;29;20104;-84
2022/02/23 20:37:58;;;;;;;32.75;17.80;;;230.60;2252.80;;;;;;4882159;29;20413;-81
2022/02/23 20:40:30;;;;;;;32.20;16.00;;;230.70;2252.80;;;;;;4882521;29;20021;-81
2022/02/23 20:42:56;;;;;;;23.38;13.75;;;230.70;2252.80;;;;;;4882433;29;20031;-80
2022/02/23 20:45:31;;;;;;;25.42;15.00;;;230.70;2252.80;;;;;;4882249;29;20063;-80
2022/02/23 20:47:57;;;;;;;32.88;17.85;;;230.80;2252.80;;;;;;4881998;29;20036;-79
2022/02/23 20:50:25;;;;;;;49.97;31.17;;;230.80;2252.80;;;;;;4881873;29;20032;-78
2022/02/23 20:52:51;;;;;;;29.92;15.65;;;230.70;2252.80;;;;;;4882083;29;20528;-78
2022/02/23 20:55:19;;;;;;;61.83;26.42;;;230.70;2252.80;;;;;;4882394;29;20120;-79
2022/02/23 20:57:46;;;;;;;35.35;14.93;;;230.70;2227.20;;;;;;4898713;29;20027;-79
2022/02/23 21:00:17;;;;;;;42.15;20.92;;;230.80;2201.60;;;;;;4881599;29;20111;-81
2022/02/23 21:02:43;;;;;;;46.08;24.30;;;230.80;2227.20;;;;;;4882260;29;20029;-81
2022/02/23 21:05:09;;;;;;;66.68;29.65;;;230.70;2252.80;;;;;;4881883;29;20024;-80
2022/02/23 21:07:36;;;;;;;55.95;27.83;;;230.70;2227.20;;;;;;4881352;29;20111;-79
2022/02/23 21:10:03;;;;;;;108.03;47.85;;;230.70;2227.20;;;;;;4882019;29;20115;-80
2022/02/23 21:12:29;;;;;;;140.38;61.45;;;230.60;2201.60;;;;;;4881704;29;20080;-80
2022/02/23 21:14:58;;;;;;;61.88;30.05;;;230.70;2227.20;;;;;;4882026;29;20025;-80
2022/02/23 21:17:26;;;;;;;46.22;23.08;;;230.50;2252.80;;;;;;4881807;29;20369;-79
2022/02/23 21:19:53;;;;;;;108.85;49.28;;;230.50;2252.80;;;;;;4881484;29;20115;-78
2022/02/23 21:22:19;;;;;;;74.70;37.72;;;230.40;2252.80;;;;;;4882008;29;20361;-81
2022/02/23 21:24:45;;;;;;;60.08;29.13;;;230.40;2252.80;;;;;;4881861;29;20052;-78
2022/02/23 21:27:11;;;;;;;45.65;24.92;;;230.40;2252.80;;;;;;4881528;29;20036;-79
2022/02/23 21:29:40;;;;;;;29.02;11.90;;;230.40;2227.20;;;;;;4881474;29;20025;-79
2022/02/23 21:32:12;;;;;;;71.78;37.28;;;230.40;2150.40;;;;;;4881586;29;20338;-79
2022/02/23 21:34:42;;;;;;;52.20;28.70;;;230.40;2176.00;;;;;;4880754;29;20039;-79
2022/02/23 21:37:20;;;;;;;29.15;16.65;;;230.40;2176.00;;;;;;4881361;29;20024;-79
2022/02/23 21:39:50;;;;;;;27.17;16.05;;;230.40;2201.60;;;;;;4881589;29;20021;-81
2022/02/23 21:45:15;;;;;;;22.58;11.40;;;205.70;2201.60;;;;;;4884572;29;20092;-79
2022/02/23 21:51:09;;;;;;;28.90;14.65;;;205.70;2201.60;;;;;;4898195;29;20031;-79
2022/02/23 21:53:47;;;;;;;21.38;12.80;;;205.70;2227.20;;;;;;4881739;29;20028;-80
2022/02/23 21:56:13;;;;;;;26.98;17.75;;;205.70;2201.60;;;;;;4881308;29;20036;-80
2022/02/23 21:58:41;;;;;;;28.17;16.98;;;205.70;2227.20;;;;;;4898154;29;20020;-79
2022/02/23 22:05:23;;;;;;;19.35;11.65;;;205.70;2201.60;;;;;;4840217;29;20022;-80
2022/02/23 22:08:08;;;;;;;92.53;48.50;;;205.70;2227.20;;;;;;4731942;30;20033;-82
2022/02/23 22:10:37;;;;;;;39.97;22.27;;;205.70;2227.20;;;;;;4750203;30;20024;-81
2022/02/23 22:13:03;;;;;;;40.33;22.65;;;205.70;2227.20;;;;;;4762451;29;20263;-81
2022/02/23 22:15:29;;;;;;;22.73;13.30;;;205.70;2252.80;;;;;;4788650;29;20045;-80
2022/02/23 22:17:57;;;;;;;24.95;10.43;;;205.70;2252.80;;;;;;4797679;29;20114;-79
2022/02/23 22:20:23;;;;;;;26.05;12.32;;;205.60;2252.80;;;;;;4881552;29;20095;-79
2022/02/23 22:22:49;;;;;;;29.23;14.20;;;205.60;2252.80;;;;;;4897557;29;20028;-76
2022/02/23 22:25:21;;;;;;;27.17;14.63;;;205.60;2252.80;;;;;;4883018;29;20052;-78
2022/02/23 22:28:02;;;;;;;24.23;12.52;;;205.60;2252.80;;;;;;4905718;29;20021;-81
2022/02/23 23:16:49;;;;;;;32.42;17.85;;;205.20;2252.80;;;;;;4901016;29;20031;-83
2022/02/23 23:27:03;;;;;;;29.02;13.57;;;205.00;2252.80;;;;;;4879620;29;20025;-83
2022/02/23 23:33:49;;;;;;;51.50;19.60;;;205.00;2252.80;;;;;;4885510;29;20044;-83
2022/02/23 23:36:23;;;;;;;56.03;25.58;;;205.00;2252.80;;;;;;4882523;29;20127;-81
2022/02/23 23:38:49;;;;;;;37.70;14.48;;;204.90;2252.80;;;;;;4882781;29;20060;-82
2022/02/23 23:59:38;;;;;;;;;;;;;;;;;;;;;
